sensor_id;sensor_type;location;lat;lon;timestamp;pressure;altitude;pressure_sealevel;temperature;humidity
40918;BME280;26644;50.248;19.032;2023-06-22T00:02:09;98325.72;;;20.86;78.78
40918;BME280;26644;50.248;19.032;2023-06-22T00:05:14;98324.34;;;20.80;78.62
40918;BME280;26644;50.248;19.032;2023-06-22T00:08:20;98337.09;;;20.81;79.01
40918;BME280;26644;50.248;19.032;2023-06-22T00:11:25;98304.56;;;20.73;79.17
40918;BME280;26644;50.248;19.032;2023-06-22T00:14:29;98326.66;;;20.78;79.09
40918;BME280;26644;50.248;19.032;2023-06-22T00:17:35;98336.88;;;20.74;79.18
40918;BME280;26644;50.248;19.032;2023-06-22T00:20:39;98344.09;;;20.63;79.80
40918;BME280;26644;50.248;19.032;2023-06-22T00:23:46;98336.44;;;20.59;80.21
40918;BME280;26644;50.248;19.032;2023-06-22T00:26:51;98333.16;;;20.57;80.28
40918;BME280;26644;50.248;19.032;2023-06-22T00:29:55;98338.75;;;20.57;80.02
40918;BME280;26644;50.248;19.032;2023-06-22T00:33:00;98331.78;;;20.51;80.08
40918;BME280;26644;50.248;19.032;2023-06-22T00:36:06;98334.22;;;20.53;79.75
40918;BME280;26644;50.248;19.032;2023-06-22T00:39:16;98355.25;;;20.63;79.46
40918;BME280;26644;50.248;19.032;2023-06-22T00:42:21;98339.34;;;20.63;79.46
40918;BME280;26644;50.248;19.032;2023-06-22T00:45:26;98343.28;;;20.62;79.44
40918;BME280;26644;50.248;19.032;2023-06-22T00:48:31;98344.78;;;20.59;79.54
40918;BME280;26644;50.248;19.032;2023-06-22T00:51:38;98339.22;;;20.59;79.32
40918;BME280;26644;50.248;19.032;2023-06-22T00:54:52;98338.41;;;20.59;79.29
40918;BME280;26644;50.248;19.032;2023-06-22T00:57:57;98336.91;;;20.62;79.18
40918;BME280;26644;50.248;19.032;2023-06-22T01:01:02;98332.84;;;20.59;79.25
40918;BME280;26644;50.248;19.032;2023-06-22T01:04:06;98339.91;;;20.56;79.34
40918;BME280;26644;50.248;19.032;2023-06-22T01:07:25;98341.88;;;20.56;79.24
40918;BME280;26644;50.248;19.032;2023-06-22T01:10:44;98342.22;;;20.54;79.18
40918;BME280;26644;50.248;19.032;2023-06-22T01:14:00;98341.88;;;20.56;79.49
40918;BME280;26644;50.248;19.032;2023-06-22T01:17:12;98321.91;;;20.54;79.15
40918;BME280;26644;50.248;19.032;2023-06-22T01:20:20;98337.22;;;20.60;78.93
40918;BME280;26644;50.248;19.032;2023-06-22T01:23:40;98335.28;;;20.61;78.79
40918;BME280;26644;50.248;19.032;2023-06-22T01:27:12;98328.41;;;20.58;79.09
40918;BME280;26644;50.248;19.032;2023-06-22T01:30:30;98331.44;;;20.53;79.17
40918;BME280;26644;50.248;19.032;2023-06-22T01:33:42;98324.69;;;20.41;79.32
40918;BME280;26644;50.248;19.032;2023-06-22T01:36:50;98328.63;;;20.53;79.30
40918;BME280;26644;50.248;19.032;2023-06-22T01:39:57;98335.03;;;20.53;79.14
40918;BME280;26644;50.248;19.032;2023-06-22T01:43:06;98339.78;;;20.53;79.17
40918;BME280;26644;50.248;19.032;2023-06-22T01:46:14;98343.03;;;20.55;79.04
40918;BME280;26644;50.248;19.032;2023-06-22T01:49:21;98347.81;;;20.54;79.06
40918;BME280;26644;50.248;19.032;2023-06-22T01:52:26;98345.50;;;20.56;78.99
40918;BME280;26644;50.248;19.032;2023-06-22T01:55:32;98345.50;;;20.56;79.24
40918;BME280;26644;50.248;19.032;2023-06-22T01:58:44;98336.06;;;20.49;79.14
40918;BME280;26644;50.248;19.032;2023-06-22T02:02:02;98335.50;;;20.43;79.35
40918;BME280;26644;50.248;19.032;2023-06-22T02:05:15;98351.88;;;20.45;79.10
40918;BME280;26644;50.248;19.032;2023-06-22T02:08:27;98351.97;;;20.36;79.21
40918;BME280;26644;50.248;19.032;2023-06-22T02:11:35;98356.03;;;20.26;79.38
40918;BME280;26644;50.248;19.032;2023-06-22T02:14:42;98358.13;;;20.17;80.00
40918;BME280;26644;50.248;19.032;2023-06-22T02:17:50;98352.00;;;20.02;80.33
40918;BME280;26644;50.248;19.032;2023-06-22T02:20:55;98352.59;;;19.96;80.51
40918;BME280;26644;50.248;19.032;2023-06-22T02:24:00;98366.50;;;19.96;80.65
40918;BME280;26644;50.248;19.032;2023-06-22T02:27:06;98369.50;;;19.90;80.85
40918;BME280;26644;50.248;19.032;2023-06-22T02:30:12;98360.22;;;19.86;81.12
40918;BME280;26644;50.248;19.032;2023-06-22T02:33:21;98369.13;;;19.80;81.32
40918;BME280;26644;50.248;19.032;2023-06-22T02:36:25;98350.25;;;19.64;81.61
40918;BME280;26644;50.248;19.032;2023-06-22T02:39:32;98369.19;;;19.71;81.79
40918;BME280;26644;50.248;19.032;2023-06-22T02:42:36;98361.53;;;19.68;82.06
40918;BME280;26644;50.248;19.032;2023-06-22T02:45:41;98380.00;;;19.72;82.10
40918;BME280;26644;50.248;19.032;2023-06-22T02:48:49;98381.28;;;19.75;82.10
40918;BME280;26644;50.248;19.032;2023-06-22T02:51:54;98383.41;;;19.78;81.88
40918;BME280;26644;50.248;19.032;2023-06-22T02:54:58;98385.50;;;19.81;81.61
40918;BME280;26644;50.248;19.032;2023-06-22T02:58:04;98379.19;;;19.72;81.88
40918;BME280;26644;50.248;19.032;2023-06-22T03:01:12;98397.78;;;19.80;82.06
40918;BME280;26644;50.248;19.032;2023-06-22T03:04:24;98402.00;;;19.86;81.79
40918;BME280;26644;50.248;19.032;2023-06-22T03:07:28;98402.59;;;19.92;81.63
40918;BME280;26644;50.248;19.032;2023-06-22T03:10:34;98415.63;;;20.00;81.42
40918;BME280;26644;50.248;19.032;2023-06-22T03:13:38;98407.88;;;20.06;81.27
40918;BME280;26644;50.248;19.032;2023-06-22T03:16:44;98410.78;;;20.09;80.70
40918;BME280;26644;50.248;19.032;2023-06-22T03:19:50;98404.81;;;20.20;80.48
40918;BME280;26644;50.248;19.032;2023-06-22T03:22:56;98422.38;;;20.33;80.08
40918;BME280;26644;50.248;19.032;2023-06-22T03:26:00;98421.69;;;20.36;79.55
40918;BME280;26644;50.248;19.032;2023-06-22T03:29:06;98411.31;;;20.36;79.64
40918;BME280;26644;50.248;19.032;2023-06-22T03:32:10;98426.13;;;20.49;78.76
40918;BME280;26644;50.248;19.032;2023-06-22T03:35:20;98426.69;;;20.55;78.97
40918;BME280;26644;50.248;19.032;2023-06-22T03:38:24;98430.19;;;20.64;78.38
40918;BME280;26644;50.248;19.032;2023-06-22T03:41:31;98432.88;;;20.73;78.00
40918;BME280;26644;50.248;19.032;2023-06-22T03:44:36;98417.56;;;20.79;77.57
40918;BME280;26644;50.248;19.032;2023-06-22T03:47:41;98416.75;;;20.91;77.65
40918;BME280;26644;50.248;19.032;2023-06-22T03:50:48;98406.38;;;20.91;77.15
40918;BME280;26644;50.248;19.032;2023-06-22T03:53:53;98421.19;;;21.04;77.05
40918;BME280;26644;50.248;19.032;2023-06-22T03:56:58;98406.41;;;21.04;77.09
40918;BME280;26644;50.248;19.032;2023-06-22T04:00:05;98410.47;;;21.19;76.62
40918;BME280;26644;50.248;19.032;2023-06-22T04:03:14;98410.56;;;21.35;76.01
40918;BME280;26644;50.248;19.032;2023-06-22T04:06:22;98431.19;;;21.71;74.99
40918;BME280;26644;50.248;19.032;2023-06-22T04:09:27;98424.03;;;21.98;74.72
40918;BME280;26644;50.248;19.032;2023-06-22T04:12:32;98429.34;;;22.48;72.76
40918;BME280;26644;50.248;19.032;2023-06-22T04:15:36;98434.22;;;22.99;71.29
40918;BME280;26644;50.248;19.032;2023-06-22T04:18:41;98424.88;;;23.43;69.39
40918;BME280;26644;50.248;19.032;2023-06-22T04:21:49;98429.41;;;23.86;67.78
40918;BME280;26644;50.248;19.032;2023-06-22T04:24:54;98446.44;;;24.36;66.68
40918;BME280;26644;50.248;19.032;2023-06-22T04:27:58;98462.00;;;24.73;65.21
40918;BME280;26644;50.248;19.032;2023-06-22T04:31:06;98465.72;;;25.04;64.01
40918;BME280;26644;50.248;19.032;2023-06-22T04:34:10;98465.81;;;25.34;63.45
40918;BME280;26644;50.248;19.032;2023-06-22T04:37:20;98453.13;;;25.74;62.41
40918;BME280;26644;50.248;19.032;2023-06-22T04:40:25;98466.47;;;26.12;60.75
40918;BME280;26644;50.248;19.032;2023-06-22T04:43:30;98461.22;;;26.44;59.44
40918;BME280;26644;50.248;19.032;2023-06-22T04:46:34;98455.31;;;26.56;59.01
40918;BME280;26644;50.248;19.032;2023-06-22T04:49:40;98462.84;;;26.83;58.74
40918;BME280;26644;50.248;19.032;2023-06-22T04:52:47;98471.59;;;27.19;57.90
40918;BME280;26644;50.248;19.032;2023-06-22T04:55:52;98477.09;;;27.53;56.58
40918;BME280;26644;50.248;19.032;2023-06-22T04:58:56;98488.91;;;27.77;56.28
40918;BME280;26644;50.248;19.032;2023-06-22T05:02:02;98484.25;;;28.10;55.84
40918;BME280;26644;50.248;19.032;2023-06-22T05:05:07;98483.53;;;28.31;55.04
40918;BME280;26644;50.248;19.032;2023-06-22T05:08:17;98486.47;;;28.52;54.37
40918;BME280;26644;50.248;19.032;2023-06-22T05:11:21;98494.16;;;28.74;54.00
40918;BME280;26644;50.248;19.032;2023-06-22T05:14:26;98494.59;;;28.97;53.59
40918;BME280;26644;50.248;19.032;2023-06-22T05:17:31;98498.25;;;29.19;53.00
40918;BME280;26644;50.248;19.032;2023-06-22T05:20:36;98503.91;;;29.41;52.46
40918;BME280;26644;50.248;19.032;2023-06-22T05:23:42;98505.91;;;29.66;51.23
40918;BME280;26644;50.248;19.032;2023-06-22T05:26:47;98511.13;;;29.89;50.77
40918;BME280;26644;50.248;19.032;2023-06-22T05:29:51;98515.13;;;29.99;50.19
40918;BME280;26644;50.248;19.032;2023-06-22T05:32:56;98513.50;;;30.05;50.16
40918;BME280;26644;50.248;19.032;2023-06-22T05:36:01;98520.28;;;30.33;49.57
40918;BME280;26644;50.248;19.032;2023-06-22T05:39:14;98522.16;;;30.61;49.06
40918;BME280;26644;50.248;19.032;2023-06-22T05:42:18;98514.31;;;30.91;48.29
40918;BME280;26644;50.248;19.032;2023-06-22T05:45:23;98524.97;;;31.28;46.67
40918;BME280;26644;50.248;19.032;2023-06-22T05:48:27;98519.31;;;31.28;46.48
40918;BME280;26644;50.248;19.032;2023-06-22T05:51:32;98519.94;;;30.98;47.01
40918;BME280;26644;50.248;19.032;2023-06-22T05:54:39;98518.84;;;30.81;47.11
40918;BME280;26644;50.248;19.032;2023-06-22T05:57:44;98516.84;;;30.67;47.82
40918;BME280;26644;50.248;19.032;2023-06-22T06:00:49;98521.72;;;30.66;47.89
40918;BME280;26644;50.248;19.032;2023-06-22T06:03:54;98531.78;;;30.75;47.35
40918;BME280;26644;50.248;19.032;2023-06-22T06:06:58;98534.34;;;30.58;47.77
40918;BME280;26644;50.248;19.032;2023-06-22T06:10:06;98524.88;;;30.86;47.56
40918;BME280;26644;50.248;19.032;2023-06-22T06:13:11;98521.38;;;31.20;47.29
40918;BME280;26644;50.248;19.032;2023-06-22T06:16:16;98520.50;;;31.31;45.14
40918;BME280;26644;50.248;19.032;2023-06-22T06:19:20;98526.44;;;30.95;45.88
40918;BME280;26644;50.248;19.032;2023-06-22T06:22:25;98534.34;;;30.51;47.21
40918;BME280;26644;50.248;19.032;2023-06-22T06:25:32;98545.09;;;29.85;48.80
40918;BME280;26644;50.248;19.032;2023-06-22T06:28:37;98547.13;;;29.52;50.08
40918;BME280;26644;50.248;19.032;2023-06-22T06:31:42;98545.09;;;29.28;50.43
40918;BME280;26644;50.248;19.032;2023-06-22T06:34:47;98545.09;;;29.06;51.48
40918;BME280;26644;50.248;19.032;2023-06-22T06:37:51;98534.16;;;28.97;52.06
40918;BME280;26644;50.248;19.032;2023-06-22T06:40:59;98539.03;;;29.18;51.66
40918;BME280;26644;50.248;19.032;2023-06-22T06:44:03;98532.56;;;29.68;50.67
40918;BME280;26644;50.248;19.032;2023-06-22T06:47:08;98540.81;;;30.55;48.37
40918;BME280;26644;50.248;19.032;2023-06-22T06:50:12;98541.25;;;31.17;46.35
40918;BME280;26644;50.248;19.032;2023-06-22T06:53:17;98538.91;;;31.57;44.96
40918;BME280;26644;50.248;19.032;2023-06-22T06:56:24;98529.06;;;32.11;44.35
40918;BME280;26644;50.248;19.032;2023-06-22T06:59:29;98536.63;;;32.87;42.86
40918;BME280;26644;50.248;19.032;2023-06-22T07:02:33;98539.16;;;33.35;41.85
40918;BME280;26644;50.248;19.032;2023-06-22T07:05:38;98519.44;;;33.48;40.95
40918;BME280;26644;50.248;19.032;2023-06-22T07:08:42;98542.28;;;33.89;40.10
40918;BME280;26644;50.248;19.032;2023-06-22T07:11:50;98546.28;;;34.15;39.04
40918;BME280;26644;50.248;19.032;2023-06-22T07:14:57;98549.31;;;34.48;38.24
40918;BME280;26644;50.248;19.032;2023-06-22T07:18:06;98553.13;;;34.78;37.29
40918;BME280;26644;50.248;19.032;2023-06-22T07:21:11;98539.97;;;34.84;36.28
40918;BME280;26644;50.248;19.032;2023-06-22T07:24:16;98546.13;;;34.82;35.88
40918;BME280;26644;50.248;19.032;2023-06-22T07:27:23;98559.28;;;35.13;35.65
40918;BME280;26644;50.248;19.032;2023-06-22T07:30:28;98559.81;;;35.08;34.91
40918;BME280;26644;50.248;19.032;2023-06-22T07:33:33;98563.75;;;35.30;34.99
40918;BME280;26644;50.248;19.032;2023-06-22T07:36:38;98562.34;;;35.55;33.58
40918;BME280;26644;50.248;19.032;2023-06-22T07:39:42;98579.63;;;35.81;33.01
40918;BME280;26644;50.248;19.032;2023-06-22T07:42:50;98578.25;;;35.86;32.76
40918;BME280;26644;50.248;19.032;2023-06-22T07:45:55;98573.81;;;35.85;32.59
40918;BME280;26644;50.248;19.032;2023-06-22T07:49:00;98572.91;;;35.88;32.37
40918;BME280;26644;50.248;19.032;2023-06-22T07:52:05;98578.72;;;36.01;32.26
40918;BME280;26644;50.248;19.032;2023-06-22T07:55:10;98577.28;;;36.09;32.00
40918;BME280;26644;50.248;19.032;2023-06-22T07:58:17;98584.75;;;36.19;31.62
40918;BME280;26644;50.248;19.032;2023-06-22T08:01:22;98575.06;;;36.29;31.81
40918;BME280;26644;50.248;19.032;2023-06-22T08:04:27;98580.47;;;36.70;31.05
40918;BME280;26644;50.248;19.032;2023-06-22T08:07:33;98572.97;;;37.02;30.51
40918;BME280;26644;50.248;19.032;2023-06-22T08:10:38;98586.13;;;37.25;29.29
40918;BME280;26644;50.248;19.032;2023-06-22T08:13:46;98582.50;;;37.37;29.50
40918;BME280;26644;50.248;19.032;2023-06-22T08:16:50;98580.41;;;37.51;28.88
40918;BME280;26644;50.248;19.032;2023-06-22T08:19:55;98589.09;;;37.60;28.91
40918;BME280;26644;50.248;19.032;2023-06-22T08:23:00;98592.63;;;37.64;28.82
40918;BME280;26644;50.248;19.032;2023-06-22T08:26:07;98597.91;;;37.66;28.50
40918;BME280;26644;50.248;19.032;2023-06-22T08:29:14;98593.44;;;37.64;28.58
40918;BME280;26644;50.248;19.032;2023-06-22T08:32:19;98583.13;;;37.67;28.80
40918;BME280;26644;50.248;19.032;2023-06-22T08:35:23;98601.59;;;37.53;28.64
40918;BME280;26644;50.248;19.032;2023-06-22T08:38:28;98605.81;;;37.61;28.05
40918;BME280;26644;50.248;19.032;2023-06-22T08:41:33;98597.00;;;37.56;28.71
40918;BME280;26644;50.248;19.032;2023-06-22T08:44:40;98598.50;;;37.47;28.74
40918;BME280;26644;50.248;19.032;2023-06-22T08:47:44;98602.94;;;37.61;28.78
40918;BME280;26644;50.248;19.032;2023-06-22T08:50:49;98605.81;;;38.09;28.50
40918;BME280;26644;50.248;19.032;2023-06-22T08:53:53;98601.53;;;38.27;27.84
40918;BME280;26644;50.248;19.032;2023-06-22T08:56:58;98594.97;;;38.39;27.70
40918;BME280;26644;50.248;19.032;2023-06-22T09:00:07;98607.22;;;38.62;28.02
40918;BME280;26644;50.248;19.032;2023-06-22T09:03:18;98604.28;;;38.75;27.42
40918;BME280;26644;50.248;19.032;2023-06-22T09:06:28;98610.41;;;38.64;27.42
40918;BME280;26644;50.248;19.032;2023-06-22T09:09:33;98595.56;;;38.21;27.47
40918;BME280;26644;50.248;19.032;2023-06-22T09:12:38;98584.47;;;37.75;28.77
40918;BME280;26644;50.248;19.032;2023-06-22T09:15:47;98578.16;;;37.93;28.25
40918;BME280;26644;50.248;19.032;2023-06-22T09:18:51;98592.66;;;37.99;27.79
40918;BME280;26644;50.248;19.032;2023-06-22T09:21:57;98596.13;;;37.94;28.61
40918;BME280;26644;50.248;19.032;2023-06-22T09:25:01;98583.91;;;38.16;28.10
40918;BME280;26644;50.248;19.032;2023-06-22T09:28:07;98579.25;;;38.31;28.24
40918;BME280;26644;50.248;19.032;2023-06-22T09:31:14;98577.22;;;38.54;27.46
40918;BME280;26644;50.248;19.032;2023-06-22T09:34:19;98568.56;;;38.44;27.48
40918;BME280;26644;50.248;19.032;2023-06-22T09:37:23;98567.13;;;38.27;27.72
40918;BME280;26644;50.248;19.032;2023-06-22T09:40:28;98557.38;;;38.02;27.70
40918;BME280;26644;50.248;19.032;2023-06-22T09:43:33;98548.41;;;37.78;28.06
40918;BME280;26644;50.248;19.032;2023-06-22T09:46:41;98559.44;;;38.02;27.75
40918;BME280;26644;50.248;19.032;2023-06-22T09:49:46;98563.19;;;38.11;27.19
40918;BME280;26644;50.248;19.032;2023-06-22T09:52:50;98544.19;;;37.57;27.14
40918;BME280;26644;50.248;19.032;2023-06-22T09:55:55;98544.53;;;37.59;27.49
40918;BME280;26644;50.248;19.032;2023-06-22T09:59:00;98535.06;;;37.49;27.58
40918;BME280;26644;50.248;19.032;2023-06-22T10:02:10;98546.34;;;37.66;26.81
40918;BME280;26644;50.248;19.032;2023-06-22T10:05:15;98544.16;;;37.70;27.32
40918;BME280;26644;50.248;19.032;2023-06-22T10:08:19;98539.41;;;37.54;26.82
40918;BME280;26644;50.248;19.032;2023-06-22T10:11:24;98538.94;;;37.55;27.68
40918;BME280;26644;50.248;19.032;2023-06-22T10:14:31;98538.84;;;37.46;27.10
40918;BME280;26644;50.248;19.032;2023-06-22T10:17:39;98540.56;;;37.18;27.53
40918;BME280;26644;50.248;19.032;2023-06-22T10:20:43;98536.91;;;36.91;28.05
40918;BME280;26644;50.248;19.032;2023-06-22T10:23:48;98531.56;;;36.93;28.48
40918;BME280;26644;50.248;19.032;2023-06-22T10:26:52;98534.28;;;37.10;28.00
40918;BME280;26644;50.248;19.032;2023-06-22T10:29:57;98522.84;;;37.10;28.02
40918;BME280;26644;50.248;19.032;2023-06-22T10:33:04;98524.53;;;37.20;27.55
40918;BME280;26644;50.248;19.032;2023-06-22T10:36:08;98535.41;;;37.25;27.62
40918;BME280;26644;50.248;19.032;2023-06-22T10:39:13;98527.63;;;37.13;27.77
40918;BME280;26644;50.248;19.032;2023-06-22T10:42:18;98534.16;;;37.01;27.77
40918;BME280;26644;50.248;19.032;2023-06-22T10:45:22;98530.47;;;36.74;27.65
40918;BME280;26644;50.248;19.032;2023-06-22T10:48:29;98518.56;;;36.63;28.35
40918;BME280;26644;50.248;19.032;2023-06-22T10:51:33;98517.56;;;36.70;27.54
40918;BME280;26644;50.248;19.032;2023-06-22T10:54:38;98513.75;;;36.47;27.70
40918;BME280;26644;50.248;19.032;2023-06-22T10:57:42;98515.31;;;36.35;27.54
40918;BME280;26644;50.248;19.032;2023-06-22T11:00:48;98509.03;;;35.98;28.32
40918;BME280;26644;50.248;19.032;2023-06-22T11:03:55;98507.47;;;35.31;28.59
40918;BME280;26644;50.248;19.032;2023-06-22T11:07:00;98497.16;;;34.67;29.55
40918;BME280;26644;50.248;19.032;2023-06-22T11:10:05;98491.78;;;34.33;30.51
40918;BME280;26644;50.248;19.032;2023-06-22T11:13:11;98502.06;;;33.87;31.47
40918;BME280;26644;50.248;19.032;2023-06-22T11:16:15;98486.59;;;33.44;32.32
40918;BME280;26644;50.248;19.032;2023-06-22T11:19:23;98480.72;;;33.07;32.50
40918;BME280;26644;50.248;19.032;2023-06-22T11:22:27;98484.22;;;32.60;33.05
40918;BME280;26644;50.248;19.032;2023-06-22T11:25:35;98478.63;;;32.22;34.07
40918;BME280;26644;50.248;19.032;2023-06-22T11:28:39;98474.09;;;31.94;35.17
40918;BME280;26644;50.248;19.032;2023-06-22T11:31:44;98459.88;;;31.97;35.54
40918;BME280;26644;50.248;19.032;2023-06-22T11:34:51;98470.19;;;31.80;35.67
40918;BME280;26644;50.248;19.032;2023-06-22T11:37:56;98462.00;;;31.48;35.84
40918;BME280;26644;50.248;19.032;2023-06-22T11:41:00;98470.69;;;31.33;35.90
40918;BME280;26644;50.248;19.032;2023-06-22T11:44:05;98455.53;;;31.02;35.34
40918;BME280;26644;50.248;19.032;2023-06-22T11:47:09;98457.63;;;30.91;35.78
40918;BME280;26644;50.248;19.032;2023-06-22T11:50:16;98470.28;;;30.79;35.60
40918;BME280;26644;50.248;19.032;2023-06-22T11:53:21;98459.81;;;30.65;35.74
40918;BME280;26644;50.248;19.032;2023-06-22T11:56:26;98458.63;;;30.62;36.03
40918;BME280;26644;50.248;19.032;2023-06-22T11:59:30;98440.03;;;30.58;36.44
40918;BME280;26644;50.248;19.032;2023-06-22T12:02:35;98443.97;;;30.78;36.36
40918;BME280;26644;50.248;19.032;2023-06-22T12:05:42;98441.41;;;30.95;35.82
40918;BME280;26644;50.248;19.032;2023-06-22T12:08:47;98436.44;;;31.10;35.68
40918;BME280;26644;50.248;19.032;2023-06-22T12:11:51;98431.91;;;31.16;34.93
40918;BME280;26644;50.248;19.032;2023-06-22T12:14:56;98422.59;;;31.15;35.57
40918;BME280;26644;50.248;19.032;2023-06-22T12:18:04;98431.50;;;31.17;35.97
40918;BME280;26644;50.248;19.032;2023-06-22T12:21:12;98423.50;;;31.05;35.76
40918;BME280;26644;50.248;19.032;2023-06-22T12:24:17;98426.03;;;30.92;36.14
40918;BME280;26644;50.248;19.032;2023-06-22T12:27:22;98419.59;;;30.88;36.02
40918;BME280;26644;50.248;19.032;2023-06-22T12:30:26;98415.13;;;30.91;36.70
40918;BME280;26644;50.248;19.032;2023-06-22T12:33:31;98399.38;;;30.90;36.99
40918;BME280;26644;50.248;19.032;2023-06-22T12:36:38;98413.31;;;31.11;36.85
40918;BME280;26644;50.248;19.032;2023-06-22T12:39:43;98400.78;;;31.09;36.26
40918;BME280;26644;50.248;19.032;2023-06-22T12:42:48;98401.31;;;30.96;36.33
40918;BME280;26644;50.248;19.032;2023-06-22T12:45:53;98388.03;;;30.86;36.96
40918;BME280;26644;50.248;19.032;2023-06-22T12:48:57;98396.59;;;30.79;37.04
40918;BME280;26644;50.248;19.032;2023-06-22T12:52:08;98395.00;;;30.70;36.90
40918;BME280;26644;50.248;19.032;2023-06-22T12:55:13;98385.34;;;30.64;36.52
40918;BME280;26644;50.248;19.032;2023-06-22T12:58:18;98380.97;;;30.56;37.20
40918;BME280;26644;50.248;19.032;2023-06-22T13:01:23;98372.63;;;30.38;37.13
40918;BME280;26644;50.248;19.032;2023-06-22T13:04:27;98372.69;;;30.27;37.79
40918;BME280;26644;50.248;19.032;2023-06-22T13:07:34;98368.31;;;30.08;37.45
40918;BME280;26644;50.248;19.032;2023-06-22T13:10:39;98367.94;;;30.02;37.89
40918;BME280;26644;50.248;19.032;2023-06-22T13:13:45;98381.31;;;29.95;37.70
40918;BME280;26644;50.248;19.032;2023-06-22T13:16:50;98372.06;;;29.91;38.33
40918;BME280;26644;50.248;19.032;2023-06-22T13:19:54;98373.69;;;29.84;38.27
40918;BME280;26644;50.248;19.032;2023-06-22T13:23:02;98361.59;;;29.80;38.44
40918;BME280;26644;50.248;19.032;2023-06-22T13:26:07;98363.56;;;29.87;38.70
40918;BME280;26644;50.248;19.032;2023-06-22T13:29:12;98366.38;;;29.91;38.09
40918;BME280;26644;50.248;19.032;2023-06-22T13:32:17;98357.13;;;29.83;38.65
40918;BME280;26644;50.248;19.032;2023-06-22T13:35:22;98352.75;;;29.71;39.01
40918;BME280;26644;50.248;19.032;2023-06-22T13:38:29;98347.91;;;29.68;39.01
40918;BME280;26644;50.248;19.032;2023-06-22T13:41:34;98358.41;;;29.67;38.83
40918;BME280;26644;50.248;19.032;2023-06-22T13:44:41;98353.16;;;29.62;39.23
40918;BME280;26644;50.248;19.032;2023-06-22T13:47:46;98354.38;;;29.54;38.94
40918;BME280;26644;50.248;19.032;2023-06-22T13:50:50;98354.84;;;29.45;39.47
40918;BME280;26644;50.248;19.032;2023-06-22T13:53:58;98344.75;;;29.41;39.38
40918;BME280;26644;50.248;19.032;2023-06-22T13:57:02;98349.56;;;29.51;39.14
40918;BME280;26644;50.248;19.032;2023-06-22T14:00:08;98351.97;;;29.56;39.24
40918;BME280;26644;50.248;19.032;2023-06-22T14:03:13;98337.81;;;29.67;39.53
40918;BME280;26644;50.248;19.032;2023-06-22T14:06:19;98330.53;;;29.59;39.44
40918;BME280;26644;50.248;19.032;2023-06-22T14:09:26;98322.47;;;29.53;39.03
40918;BME280;26644;50.248;19.032;2023-06-22T14:12:31;98335.00;;;29.56;39.14
40918;BME280;26644;50.248;19.032;2023-06-22T14:15:35;98330.13;;;29.60;38.65
40918;BME280;26644;50.248;19.032;2023-06-22T14:18:40;98332.56;;;29.65;38.94
40918;BME280;26644;50.248;19.032;2023-06-22T14:21:44;98328.91;;;29.65;38.74
40918;BME280;26644;50.248;19.032;2023-06-22T14:24:52;98325.31;;;29.57;38.98
40918;BME280;26644;50.248;19.032;2023-06-22T14:27:56;98335.38;;;29.62;39.50
40918;BME280;26644;50.248;19.032;2023-06-22T14:31:01;98340.66;;;29.60;38.94
40918;BME280;26644;50.248;19.032;2023-06-22T14:34:06;98319.25;;;29.55;38.84
40918;BME280;26644;50.248;19.032;2023-06-22T14:37:11;98330.53;;;29.62;38.70
40918;BME280;26644;50.248;19.032;2023-06-22T14:40:17;98321.19;;;29.73;39.20
40918;BME280;26644;50.248;19.032;2023-06-22T14:43:22;98330.44;;;29.87;38.86
40918;BME280;26644;50.248;19.032;2023-06-22T14:46:27;98314.69;;;29.86;38.48
40918;BME280;26644;50.248;19.032;2023-06-22T14:49:32;98308.59;;;29.88;38.78
40918;BME280;26644;50.248;19.032;2023-06-22T14:52:36;98326.75;;;29.94;38.64
40918;BME280;26644;50.248;19.032;2023-06-22T14:55:44;98307.38;;;29.89;38.53
40918;BME280;26644;50.248;19.032;2023-06-22T14:58:48;98307.81;;;29.87;38.76
40918;BME280;26644;50.248;19.032;2023-06-22T15:01:53;98311.03;;;29.86;38.67
40918;BME280;26644;50.248;19.032;2023-06-22T15:04:58;98307.84;;;29.80;38.50
40918;BME280;26644;50.248;19.032;2023-06-22T15:08:03;98301.03;;;29.70;38.60
40918;BME280;26644;50.248;19.032;2023-06-22T15:11:10;98296.94;;;29.75;38.94
40918;BME280;26644;50.248;19.032;2023-06-22T15:14:15;98303.38;;;29.79;38.76
40918;BME280;26644;50.248;19.032;2023-06-22T15:17:19;98302.19;;;29.77;38.64
40918;BME280;26644;50.248;19.032;2023-06-22T15:20:24;98303.81;;;29.78;38.41
40918;BME280;26644;50.248;19.032;2023-06-22T15:23:28;98300.56;;;29.79;38.30
40918;BME280;26644;50.248;19.032;2023-06-22T15:26:36;98302.19;;;29.77;38.40
40918;BME280;26644;50.248;19.032;2023-06-22T15:29:40;98299.34;;;29.77;38.53
40918;BME280;26644;50.248;19.032;2023-06-22T15:32:45;98308.69;;;29.74;38.29
40918;BME280;26644;50.248;19.032;2023-06-22T15:35:50;98303.81;;;29.74;38.48
40918;BME280;26644;50.248;19.032;2023-06-22T15:38:56;98297.78;;;29.72;38.36
40918;BME280;26644;50.248;19.032;2023-06-22T15:42:03;98295.75;;;29.73;38.43
40918;BME280;26644;50.248;19.032;2023-06-22T15:45:09;98294.13;;;29.75;38.44
40918;BME280;26644;50.248;19.032;2023-06-22T15:48:13;98297.34;;;29.74;38.22
40918;BME280;26644;50.248;19.032;2023-06-22T15:51:18;98296.56;;;29.73;38.62
40918;BME280;26644;50.248;19.032;2023-06-22T15:54:22;98283.28;;;29.66;38.34
40918;BME280;26644;50.248;19.032;2023-06-22T15:57:31;98284.84;;;29.71;38.39
40918;BME280;26644;50.248;19.032;2023-06-22T16:00:35;98289.72;;;29.70;38.43
40918;BME280;26644;50.248;19.032;2023-06-22T16:03:40;98287.25;;;29.76;38.64
40918;BME280;26644;50.248;19.032;2023-06-22T16:06:44;98282.00;;;29.78;38.33
40918;BME280;26644;50.248;19.032;2023-06-22T16:09:49;98285.22;;;29.77;38.31
40918;BME280;26644;50.248;19.032;2023-06-22T16:12:56;98273.53;;;29.71;38.50